createdAt,value
2017-08-28T00:01:14.243Z,18.70
2017-08-28T00:03:41.758Z,18.60
2017-08-28T00:06:09.290Z,18.70
2017-08-28T00:08:36.802Z,18.60
2017-08-28T00:11:04.329Z,18.60
2017-08-28T00:13:31.837Z,18.60
2017-08-28T00:15:59.369Z,18.60
2017-08-28T00:18:26.894Z,18.60
2017-08-28T00:20:54.430Z,18.60
2017-08-28T00:23:21.947Z,18.60
2017-08-28T00:25:49.481Z,18.60
2017-08-28T00:28:16.999Z,18.60
2017-08-28T00:30:44.537Z,18.60
2017-08-28T00:33:12.045Z,18.60
2017-08-28T00:35:39.565Z,18.50
2017-08-28T00:38:07.099Z,18.50
2017-08-28T00:40:34.609Z,18.50
2017-08-28T00:43:02.138Z,18.50
2017-08-28T00:45:33.117Z,18.50
2017-08-28T00:48:00.649Z,18.60
2017-08-28T00:50:28.159Z,18.50
2017-08-28T00:52:55.691Z,18.50
2017-08-28T00:55:23.198Z,18.60
2017-08-28T00:57:50.728Z,18.60
2017-08-28T01:00:18.249Z,18.50
2017-08-28T01:02:45.773Z,18.50
2017-08-28T01:05:13.293Z,18.50
2017-08-28T01:07:40.831Z,18.50
2017-08-28T01:10:08.347Z,18.50
2017-08-28T01:12:35.888Z,18.40
2017-08-28T01:15:03.408Z,18.40
2017-08-28T01:17:30.941Z,18.30
2017-08-28T01:19:58.461Z,18.20
2017-08-28T01:22:25.999Z,18.20
2017-08-28T01:24:53.502Z,18.20
2017-08-28T01:27:21.042Z,18.10
2017-08-28T01:29:48.562Z,18.00
2017-08-28T01:32:16.080Z,18.00
2017-08-28T01:34:43.620Z,18.00
2017-08-28T01:37:11.129Z,18.00
2017-08-28T01:39:38.653Z,18.00
2017-08-28T01:42:06.168Z,18.00
2017-08-28T01:44:33.688Z,18.00
2017-08-28T01:47:01.189Z,18.00
2017-08-28T01:49:28.718Z,18.00
2017-08-28T01:51:56.226Z,18.00
2017-08-28T01:54:23.741Z,18.00
2017-08-28T01:56:51.257Z,17.90
2017-08-28T01:59:19.671Z,17.90
2017-08-28T02:01:47.201Z,17.90
2017-08-28T02:04:14.728Z,17.90
2017-08-28T02:06:42.236Z,17.90
2017-08-28T02:09:09.779Z,17.90
2017-08-28T02:11:37.286Z,17.90
2017-08-28T02:14:04.828Z,17.90
2017-08-28T02:16:32.346Z,17.90
2017-08-28T02:18:59.878Z,17.90
2017-08-28T02:21:27.401Z,17.90
2017-08-28T02:23:54.915Z,17.80
2017-08-28T02:26:22.446Z,17.80
2017-08-28T02:28:49.972Z,17.80
2017-08-28T02:31:17.744Z,17.80
2017-08-28T02:33:45.257Z,17.70
2017-08-28T02:36:12.795Z,17.60
2017-08-28T02:38:40.319Z,17.70
2017-08-28T02:41:07.849Z,17.70
2017-08-28T02:43:35.362Z,17.60
2017-08-28T02:46:02.897Z,17.60
2017-08-28T02:48:30.422Z,17.60
2017-08-28T02:50:57.963Z,17.50
2017-08-28T02:53:25.488Z,17.50
2017-08-28T02:55:53.009Z,17.50
2017-08-28T02:58:20.522Z,17.50
2017-08-28T03:00:48.055Z,17.50
2017-08-28T03:03:15.575Z,17.50
2017-08-28T03:05:43.115Z,17.40
2017-08-28T03:08:10.632Z,17.40
2017-08-28T03:10:38.163Z,17.40
2017-08-28T03:13:05.664Z,17.50
2017-08-28T03:15:33.206Z,17.50
2017-08-28T03:18:00.712Z,17.50
2017-08-28T03:20:28.289Z,17.50
2017-08-28T03:22:55.814Z,17.50
2017-08-28T03:25:23.313Z,17.50
2017-08-28T03:27:50.837Z,17.50
2017-08-28T03:30:18.345Z,17.50
2017-08-28T03:32:46.134Z,17.50
2017-08-28T03:35:13.698Z,17.50
2017-08-28T03:37:41.232Z,17.50
2017-08-28T03:40:08.743Z,17.50
2017-08-28T03:42:36.268Z,17.50
2017-08-28T03:45:03.776Z,17.50
2017-08-28T03:47:31.308Z,17.50
2017-08-28T03:49:59.073Z,17.50
2017-08-28T03:52:26.974Z,17.60
2017-08-28T03:54:54.472Z,17.50
2017-08-28T03:57:21.988Z,17.50
2017-08-28T03:59:49.491Z,17.50
2017-08-28T04:02:17.020Z,17.50
2017-08-28T04:04:44.529Z,17.50
2017-08-28T04:07:12.064Z,17.50
2017-08-28T04:09:39.577Z,17.50
2017-08-28T04:12:07.080Z,17.50
2017-08-28T04:14:34.600Z,17.50
2017-08-28T04:17:02.109Z,17.50
2017-08-28T04:19:29.743Z,17.40
2017-08-28T04:21:57.296Z,17.40
2017-08-28T04:24:24.857Z,17.50
2017-08-28T04:26:52.364Z,17.40
2017-08-28T04:29:19.884Z,17.40
2017-08-28T04:31:47.386Z,17.50
2017-08-28T04:34:14.912Z,17.60
2017-08-28T04:36:42.413Z,17.60
2017-08-28T04:39:09.928Z,17.60
2017-08-28T04:41:37.786Z,17.60
2017-08-28T04:44:05.321Z,17.60
2017-08-28T04:46:32.845Z,17.60
2017-08-28T04:49:00.517Z,17.70
2017-08-28T04:51:28.019Z,17.70
2017-08-28T04:53:55.523Z,17.70
2017-08-28T04:56:23.060Z,17.60
2017-08-28T04:58:50.592Z,17.60
2017-08-28T05:01:18.129Z,17.60
2017-08-28T05:03:45.652Z,17.80
2017-08-28T05:06:13.185Z,17.80
2017-08-28T05:08:40.689Z,17.90
2017-08-28T05:11:08.192Z,17.80
2017-08-28T05:13:35.716Z,17.70
2017-08-28T05:16:03.258Z,17.60
2017-08-28T05:18:30.778Z,17.60
2017-08-28T05:20:58.322Z,17.60
2017-08-28T05:23:25.853Z,17.60
2017-08-28T05:25:53.363Z,17.60
2017-08-28T05:28:20.868Z,17.50
2017-08-28T05:30:48.384Z,17.60
2017-08-28T05:33:15.884Z,17.70
2017-08-28T05:35:43.400Z,17.80
2017-08-28T05:38:10.944Z,17.90
2017-08-28T05:40:38.457Z,18.00
2017-08-28T05:43:05.955Z,18.20
2017-08-28T05:45:33.479Z,18.30
2017-08-28T05:48:00.975Z,18.30
2017-08-28T05:50:28.477Z,18.50
2017-08-28T05:52:55.989Z,18.60
2017-08-28T05:55:23.484Z,18.80
2017-08-28T05:57:51.000Z,18.90
2017-08-28T06:00:18.511Z,19.00
2017-08-28T06:02:48.576Z,19.00
2017-08-28T06:05:16.096Z,19.10
2017-08-28T06:07:48.384Z,19.30
2017-08-28T06:10:15.905Z,19.40
2017-08-28T06:12:43.409Z,19.40
2017-08-28T06:15:10.937Z,19.50
2017-08-28T06:17:38.429Z,19.60
2017-08-28T06:20:05.943Z,19.70
2017-08-28T06:22:33.445Z,19.80
2017-08-28T06:25:00.978Z,19.90
2017-08-28T06:27:28.844Z,19.80
2017-08-28T06:29:56.392Z,19.80
2017-08-28T06:32:23.896Z,19.90
2017-08-28T06:34:51.710Z,20.00
2017-08-28T06:37:19.284Z,20.00
2017-08-28T06:39:46.798Z,20.00
2017-08-28T06:42:14.636Z,20.00
2017-08-28T06:44:42.136Z,20.00
2017-08-28T06:47:09.665Z,20.00
2017-08-28T06:49:37.172Z,20.00
2017-08-28T06:52:04.676Z,19.90
2017-08-28T06:54:32.204Z,19.90
2017-08-28T06:56:59.705Z,20.00
2017-08-28T06:59:27.220Z,20.10
2017-08-28T07:01:54.712Z,20.20
2017-08-28T07:04:22.233Z,20.20
2017-08-28T07:06:49.738Z,20.30
2017-08-28T07:09:17.262Z,20.40
2017-08-28T07:11:44.775Z,20.40
2017-08-28T07:14:12.276Z,20.40
2017-08-28T07:16:39.802Z,20.40
2017-08-28T07:19:07.310Z,20.50
2017-08-28T07:21:34.836Z,20.50
2017-08-28T07:24:02.344Z,20.50
2017-08-28T07:26:29.861Z,20.60
2017-08-28T07:28:57.376Z,20.70
2017-08-28T07:31:24.900Z,20.70
2017-08-28T07:33:52.404Z,20.80
2017-08-28T07:36:19.905Z,20.80
2017-08-28T07:38:47.417Z,20.80
2017-08-28T07:41:14.925Z,20.80
2017-08-28T07:43:42.457Z,20.80
2017-08-28T07:46:09.961Z,20.90
2017-08-28T07:48:37.492Z,20.80
2017-08-28T07:51:05.000Z,20.80
2017-08-28T07:53:32.505Z,20.80
2017-08-28T07:56:00.060Z,20.80
2017-08-28T07:58:27.571Z,21.00
2017-08-28T08:00:55.100Z,21.10
2017-08-28T08:03:22.615Z,20.90
2017-08-28T08:05:50.141Z,21.00
2017-08-28T08:08:17.761Z,21.00
2017-08-28T08:10:45.264Z,21.10
2017-08-28T08:13:12.792Z,21.10
2017-08-28T08:15:40.305Z,21.20
2017-08-28T08:18:07.825Z,21.10
2017-08-28T08:20:35.332Z,21.10
2017-08-28T08:23:02.844Z,21.10
2017-08-28T08:25:30.355Z,21.20
2017-08-28T08:27:57.861Z,21.30
2017-08-28T08:30:25.385Z,21.30
2017-08-28T08:32:52.888Z,21.40
2017-08-28T08:35:20.425Z,21.40
2017-08-28T08:37:47.927Z,21.40
2017-08-28T08:40:15.462Z,21.40
2017-08-28T08:42:42.951Z,21.30
2017-08-28T08:45:10.462Z,21.30
2017-08-28T08:47:37.977Z,21.30
2017-08-28T08:50:05.485Z,21.40
2017-08-28T08:52:33.020Z,21.40
2017-08-28T08:55:00.568Z,21.50
2017-08-28T08:57:28.111Z,21.60
2017-08-28T08:59:55.617Z,21.70
2017-08-28T09:02:23.131Z,21.80
2017-08-28T09:04:50.641Z,21.70
2017-08-28T09:07:18.154Z,21.70
2017-08-28T09:09:45.687Z,21.60
2017-08-28T09:12:13.187Z,21.70
2017-08-28T09:14:40.700Z,21.70
2017-08-28T09:17:08.213Z,21.80
2017-08-28T09:19:35.732Z,21.80
2017-08-28T09:22:03.372Z,21.70
2017-08-28T09:24:30.906Z,21.70
2017-08-28T09:26:58.429Z,21.80
2017-08-28T09:29:25.940Z,21.90
2017-08-28T09:31:53.460Z,22.00
2017-08-28T09:34:20.966Z,22.00
2017-08-28T09:36:48.486Z,22.00
2017-08-28T09:39:15.988Z,22.10
2017-08-28T09:41:43.501Z,22.20
2017-08-28T09:44:11.024Z,22.30
2017-08-28T09:46:38.537Z,22.40
2017-08-28T09:49:06.062Z,22.50
2017-08-28T09:51:33.565Z,22.50
2017-08-28T09:54:01.096Z,22.50
2017-08-28T09:56:28.920Z,22.60
2017-08-28T09:58:56.420Z,22.50
2017-08-28T10:01:23.933Z,22.40
2017-08-28T10:03:51.495Z,22.50
2017-08-28T10:06:19.013Z,22.60
2017-08-28T10:08:46.583Z,22.70
2017-08-28T10:11:14.303Z,22.80
2017-08-28T10:13:41.877Z,22.90
2017-08-28T10:16:09.405Z,22.90
2017-08-28T10:18:36.958Z,22.90
2017-08-28T10:21:04.494Z,23.00
2017-08-28T10:23:32.044Z,23.00
2017-08-28T10:25:59.562Z,22.90
2017-08-28T10:28:27.114Z,22.90
2017-08-28T10:30:54.663Z,23.00
2017-08-28T10:33:22.188Z,23.10
2017-08-28T10:35:49.737Z,23.10
2017-08-28T10:38:17.314Z,23.20
2017-08-28T10:40:45.702Z,23.10
2017-08-28T10:43:14.449Z,23.30
2017-08-28T10:45:42.005Z,23.40
2017-08-28T10:48:09.511Z,23.50
2017-08-28T10:50:37.038Z,23.50
2017-08-28T10:53:10.354Z,23.50
2017-08-28T10:55:37.872Z,23.50
2017-08-28T10:58:05.394Z,23.50
2017-08-28T11:00:32.888Z,23.50
2017-08-28T11:03:00.414Z,23.50
2017-08-28T11:05:28.033Z,23.50
2017-08-28T11:07:55.584Z,23.50
2017-08-28T11:10:23.080Z,23.50
2017-08-28T11:12:50.572Z,23.40
2017-08-28T11:15:18.177Z,23.40
2017-08-28T11:17:45.744Z,23.40
2017-08-28T11:20:13.288Z,23.40
2017-08-28T11:22:40.817Z,23.50
2017-08-28T11:25:08.354Z,23.50
2017-08-28T11:27:35.887Z,23.60
2017-08-28T11:30:03.396Z,23.60
2017-08-28T11:32:30.937Z,23.60
2017-08-28T11:34:58.458Z,23.70
2017-08-28T11:37:26.009Z,23.70
2017-08-28T11:39:53.526Z,23.70
2017-08-28T11:42:21.072Z,23.80
2017-08-28T11:44:48.596Z,23.80
2017-08-28T11:47:16.129Z,23.90
2017-08-28T11:49:43.676Z,24.00
2017-08-28T11:52:11.203Z,24.00
2017-08-28T11:54:38.749Z,24.00
2017-08-28T11:57:06.281Z,24.00
2017-08-28T11:59:33.820Z,23.90
2017-08-28T12:02:01.341Z,23.90
2017-08-28T12:04:28.900Z,23.80
2017-08-28T12:06:56.409Z,23.90
2017-08-28T12:09:24.816Z,23.90
2017-08-28T12:11:52.356Z,23.90
2017-08-28T12:14:19.871Z,24.00
2017-08-28T12:16:47.428Z,24.00
2017-08-28T12:19:14.999Z,24.00
2017-08-28T12:21:42.571Z,24.10
2017-08-28T12:24:10.203Z,24.10
2017-08-28T12:26:37.746Z,24.30
2017-08-28T12:29:05.305Z,24.30
2017-08-28T12:31:32.841Z,24.30
2017-08-28T12:34:00.431Z,24.30
2017-08-28T12:36:27.957Z,24.40
2017-08-28T12:38:55.503Z,24.30
2017-08-28T12:41:23.037Z,24.30
2017-08-28T12:43:50.566Z,24.30
2017-08-28T12:46:18.137Z,24.30
2017-08-28T12:48:45.651Z,24.40
2017-08-28T12:51:13.197Z,24.50
2017-08-28T12:53:40.761Z,24.50
2017-08-28T12:56:21.234Z,24.60
2017-08-28T12:58:48.748Z,24.60
2017-08-28T13:01:16.310Z,24.60
2017-08-28T13:03:43.818Z,24.60
2017-08-28T13:06:11.357Z,24.80
2017-08-28T13:08:39.094Z,24.80
2017-08-28T13:11:06.671Z,24.90
2017-08-28T13:13:34.283Z,24.90
2017-08-28T13:16:02.449Z,24.90
2017-08-28T13:18:30.891Z,24.90
2017-08-28T13:20:58.433Z,25.00
2017-08-28T13:23:25.997Z,25.10
2017-08-28T13:26:01.662Z,25.10
2017-08-28T13:28:29.269Z,25.10
2017-08-28T13:30:56.806Z,25.00
2017-08-28T13:33:24.328Z,24.90
2017-08-28T13:35:51.921Z,24.90
2017-08-28T13:38:19.489Z,25.00
2017-08-28T13:40:47.235Z,25.00
2017-08-28T13:43:14.891Z,25.00
2017-08-28T13:45:42.525Z,25.10
2017-08-28T13:48:10.175Z,25.20
2017-08-28T13:50:37.782Z,25.20
2017-08-28T13:53:06.364Z,25.10
2017-08-28T13:55:34.013Z,25.10
2017-08-28T13:58:03.949Z,25.10
2017-08-28T14:00:35.285Z,25.20
2017-08-28T14:03:02.944Z,25.20
2017-08-28T14:05:30.485Z,25.30
2017-08-28T14:08:02.786Z,25.30
2017-08-28T14:10:30.375Z,25.30
2017-08-28T14:12:57.955Z,25.30
2017-08-28T14:15:25.510Z,25.30
2017-08-28T14:17:53.161Z,25.20
2017-08-28T14:20:20.754Z,25.20
2017-08-28T14:22:48.340Z,25.20
2017-08-28T14:25:15.947Z,25.30
2017-08-28T14:27:43.475Z,25.40
2017-08-28T14:30:11.089Z,25.30
2017-08-28T14:32:38.697Z,25.30
2017-08-28T14:35:07.266Z,25.30
2017-08-28T14:37:34.819Z,25.30
2017-08-28T14:40:02.353Z,25.30
2017-08-28T14:42:29.889Z,25.30
2017-08-28T14:44:57.401Z,25.30
2017-08-28T14:47:25.150Z,25.20
2017-08-28T14:49:52.730Z,25.20
2017-08-28T14:52:20.268Z,25.20
2017-08-28T14:54:47.878Z,25.30
2017-08-28T14:57:15.445Z,25.20
2017-08-28T14:59:43.040Z,25.20
2017-08-28T15:02:10.589Z,25.20
2017-08-28T15:04:38.093Z,25.20
2017-08-28T15:07:05.638Z,25.20
2017-08-28T15:09:33.164Z,25.20
2017-08-28T15:12:00.751Z,25.30
2017-08-28T15:14:28.352Z,25.30
2017-08-28T15:16:55.898Z,25.30
2017-08-28T15:19:23.428Z,25.20
2017-08-28T15:21:51.019Z,25.20
2017-08-28T15:24:18.538Z,25.30
2017-08-28T15:26:46.069Z,25.30
2017-08-28T15:29:13.629Z,25.20
2017-08-28T15:31:41.161Z,25.20
2017-08-28T15:34:08.684Z,25.20
2017-08-28T15:36:36.225Z,25.20
2017-08-28T15:39:03.755Z,25.20
2017-08-28T15:41:31.266Z,25.20
2017-08-28T15:43:58.812Z,25.30
2017-08-28T15:46:26.525Z,25.20
2017-08-28T15:48:54.036Z,25.10
2017-08-28T15:51:21.650Z,25.00
2017-08-28T15:53:49.225Z,25.00
2017-08-28T15:56:16.767Z,25.00
2017-08-28T15:58:44.293Z,24.90
2017-08-28T16:01:11.824Z,24.90
2017-08-28T16:03:39.355Z,24.90
2017-08-28T16:06:06.876Z,24.90
2017-08-28T16:08:34.408Z,24.90
2017-08-28T16:11:01.932Z,24.90
2017-08-28T16:13:29.431Z,24.80
2017-08-28T16:15:56.973Z,24.80
2017-08-28T16:18:24.500Z,24.80
2017-08-28T16:20:52.023Z,24.70
2017-08-28T16:23:19.551Z,24.70
2017-08-28T16:25:48.061Z,24.70
2017-08-28T16:28:15.579Z,24.70
2017-08-28T16:30:44.712Z,24.60
2017-08-28T16:33:12.249Z,24.50
2017-08-28T16:35:42.735Z,24.40
2017-08-28T16:38:10.308Z,24.40
2017-08-28T16:40:37.838Z,24.40
2017-08-28T16:43:05.449Z,24.40
2017-08-28T16:45:32.966Z,24.40
2017-08-28T16:48:00.553Z,24.40
2017-08-28T16:50:28.187Z,24.30
2017-08-28T16:52:55.827Z,24.20
2017-08-28T16:55:23.562Z,24.10
2017-08-28T16:57:51.367Z,24.00
2017-08-28T17:00:19.051Z,24.00
2017-08-28T17:02:46.723Z,23.90
2017-08-28T17:07:46.316Z,23.80
2017-08-28T17:10:13.893Z,23.80
2017-08-28T17:12:41.476Z,23.70
2017-08-28T17:17:40.836Z,23.60
2017-08-28T17:20:32.345Z,23.50
2017-08-28T17:23:07.037Z,23.50
2017-08-28T17:25:36.003Z,23.50
2017-08-28T17:28:03.617Z,23.40
2017-08-28T17:30:31.139Z,23.30
2017-08-28T17:32:58.671Z,23.20
2017-08-28T17:35:27.093Z,23.20
2017-08-28T17:37:54.617Z,23.10
2017-08-28T17:40:22.158Z,23.10
2017-08-28T17:42:49.710Z,23.00
2017-08-28T17:45:17.247Z,22.90
2017-08-28T17:47:44.769Z,22.80
2017-08-28T17:50:12.328Z,22.70
2017-08-28T17:52:39.844Z,22.70
2017-08-28T17:55:07.365Z,22.50
2017-08-28T17:57:34.898Z,22.40
2017-08-28T18:00:02.424Z,22.30
2017-08-28T18:02:30.007Z,22.20
2017-08-28T18:04:57.554Z,22.10
2017-08-28T18:07:25.121Z,22.10
2017-08-28T18:09:52.655Z,22.00
2017-08-28T18:12:20.202Z,21.80
2017-08-28T18:14:47.737Z,21.70
2017-08-28T18:17:15.269Z,21.60
2017-08-28T18:19:42.818Z,21.50
2017-08-28T18:22:10.339Z,21.50
2017-08-28T18:24:37.884Z,21.40
2017-08-28T18:27:05.413Z,21.30
2017-08-28T18:29:32.965Z,21.20
2017-08-28T18:32:00.507Z,21.10
2017-08-28T18:34:28.064Z,21.10
2017-08-28T18:36:55.606Z,21.00
2017-08-28T18:39:23.153Z,20.90
2017-08-28T18:41:50.710Z,20.90
2017-08-28T18:44:18.234Z,20.80
2017-08-28T18:46:58.359Z,20.80
2017-08-28T18:49:25.869Z,20.70
2017-08-28T18:51:53.424Z,20.60
2017-08-28T18:54:20.933Z,20.60
2017-08-28T18:56:48.466Z,20.50
2017-08-28T18:59:15.979Z,20.50
2017-08-28T19:01:43.501Z,20.50
2017-08-28T19:04:11.062Z,20.40
2017-08-28T19:06:38.572Z,20.40
2017-08-28T19:09:06.093Z,20.30
2017-08-28T19:11:33.602Z,20.30
2017-08-28T19:14:01.133Z,20.20
2017-08-28T19:16:28.640Z,20.20
2017-08-28T19:18:56.170Z,20.20
2017-08-28T19:21:23.684Z,20.10
2017-08-28T19:23:51.202Z,20.10
2017-08-28T19:26:18.728Z,20.00
2017-08-28T19:28:46.240Z,20.10
2017-08-28T19:31:13.765Z,20.00
2017-08-28T19:33:51.619Z,19.90
2017-08-28T19:36:19.235Z,19.90
2017-08-28T19:38:46.777Z,19.90
2017-08-28T19:41:14.308Z,19.80
2017-08-28T19:43:41.815Z,19.80
2017-08-28T19:46:09.377Z,19.90
2017-08-28T19:48:37.082Z,19.90
2017-08-28T19:51:04.620Z,19.80
2017-08-28T19:53:32.160Z,19.80
2017-08-28T19:55:59.674Z,19.70
2017-08-28T19:58:27.200Z,19.70
2017-08-28T20:00:54.696Z,19.70
2017-08-28T20:03:22.196Z,19.70
2017-08-28T20:05:49.738Z,19.70
2017-08-28T20:08:17.244Z,19.60
2017-08-28T20:10:44.774Z,19.60
2017-08-28T20:13:12.291Z,19.50
2017-08-28T20:15:40.773Z,19.60
2017-08-28T20:18:08.285Z,19.50
2017-08-28T20:20:35.820Z,19.50
2017-08-28T20:23:03.321Z,19.50
2017-08-28T20:25:30.829Z,19.50
2017-08-28T20:27:58.365Z,19.40
2017-08-28T20:30:25.884Z,19.40
2017-08-28T20:32:53.409Z,19.40
2017-08-28T20:35:29.958Z,19.40
2017-08-28T20:37:57.548Z,19.30
2017-08-28T20:40:25.060Z,19.30
2017-08-28T20:42:52.646Z,19.30
2017-08-28T20:45:20.182Z,19.30
2017-08-28T20:47:47.702Z,19.20
2017-08-28T20:50:15.438Z,19.20
2017-08-28T20:52:43.355Z,19.20
2017-08-28T20:55:11.342Z,19.30
2017-08-28T20:57:39.680Z,19.30
2017-08-28T21:00:07.244Z,19.30
2017-08-28T21:02:34.753Z,19.20
2017-08-28T21:05:02.280Z,19.20
2017-08-28T21:07:29.811Z,19.20
2017-08-28T21:09:57.412Z,19.20
2017-08-28T21:12:25.046Z,19.20
2017-08-28T21:14:52.554Z,19.10
2017-08-28T21:17:20.105Z,19.00
2017-08-28T21:19:47.631Z,19.00
2017-08-28T21:22:15.180Z,19.00
2017-08-28T21:24:42.908Z,19.00
2017-08-28T21:27:10.434Z,19.10
2017-08-28T21:29:38.071Z,19.00
2017-08-28T21:32:05.595Z,18.90
2017-08-28T21:34:33.136Z,18.90
2017-08-28T21:37:00.646Z,18.90
2017-08-28T21:39:28.185Z,18.90
2017-08-28T21:41:55.696Z,18.90
2017-08-28T21:44:23.205Z,18.90
2017-08-28T21:46:50.730Z,18.90
2017-08-28T21:49:18.249Z,18.90
2017-08-28T21:51:45.789Z,18.90
2017-08-28T21:54:13.382Z,18.90
2017-08-28T21:56:40.934Z,18.90
2017-08-28T21:59:08.469Z,18.90
2017-08-28T22:01:35.985Z,18.90
2017-08-28T22:04:03.515Z,18.90
2017-08-28T22:06:31.033Z,18.80
2017-08-28T22:08:58.577Z,18.80
2017-08-28T22:11:26.091Z,18.80
2017-08-28T22:13:53.660Z,18.80
2017-08-28T22:16:21.186Z,18.80
2017-08-28T22:18:48.722Z,18.70
2017-08-28T22:21:17.045Z,18.80
2017-08-28T22:23:44.579Z,18.60
2017-08-28T22:26:12.136Z,18.80
2017-08-28T22:28:39.645Z,18.80
2017-08-28T22:31:07.171Z,18.80
2017-08-28T22:33:34.709Z,18.80
2017-08-28T22:36:05.974Z,18.70
2017-08-28T22:38:33.528Z,18.70
2017-08-28T22:41:01.040Z,18.70
2017-08-28T22:43:29.016Z,18.70
2017-08-28T22:45:56.534Z,18.70
2017-08-28T22:48:24.072Z,18.70
2017-08-28T22:50:51.613Z,18.60
2017-08-28T22:53:19.129Z,18.60
2017-08-28T22:55:46.638Z,18.60
2017-08-28T22:58:14.177Z,18.60
2017-08-28T23:00:41.701Z,18.50
2017-08-28T23:03:09.218Z,18.50
2017-08-28T23:05:36.865Z,18.50
2017-08-28T23:08:04.429Z,18.50
2017-08-28T23:10:31.958Z,18.40
2017-08-28T23:12:59.466Z,18.40
2017-08-28T23:15:27.007Z,18.40
2017-08-28T23:17:54.572Z,18.40
2017-08-28T23:20:22.073Z,18.40
2017-08-28T23:22:49.597Z,18.40
2017-08-28T23:25:17.100Z,18.40
2017-08-28T23:27:44.631Z,18.30
2017-08-28T23:30:12.136Z,18.40
2017-08-28T23:32:39.668Z,18.40
2017-08-28T23:35:07.189Z,18.40
2017-08-28T23:37:34.877Z,18.30
2017-08-28T23:40:02.404Z,18.30
2017-08-28T23:42:29.936Z,18.20
2017-08-28T23:44:57.493Z,18.20
2017-08-28T23:47:25.001Z,18.20
2017-08-28T23:49:52.551Z,18.20
2017-08-28T23:52:20.053Z,18.20
2017-08-28T23:54:47.583Z,18.20
2017-08-28T23:57:15.088Z,18.10
2017-08-28T23:59:42.622Z,18.20
